createdAt,value
2023-05-19T00:01:29.217Z,71.43
2023-05-19T00:04:02.952Z,71.78
2023-05-19T00:06:32.383Z,71.31
2023-05-19T00:09:07.879Z,71.26
2023-05-19T00:11:36.468Z,71.38
2023-05-19T00:14:05.980Z,71.42
2023-05-19T00:16:33.136Z,72.06
2023-05-19T00:19:01.964Z,71.60
2023-05-19T00:21:29.677Z,71.50
2023-05-19T00:23:56.276Z,71.93
2023-05-19T00:26:23.521Z,72.76
2023-05-19T00:28:50.829Z,73.64
2023-05-19T00:31:17.493Z,74.00
2023-05-19T00:33:44.282Z,74.78
2023-05-19T00:36:10.924Z,75.13
2023-05-19T00:38:37.949Z,76.49
2023-05-19T00:41:05.794Z,77.20
2023-05-19T00:43:35.753Z,78.04
2023-05-19T00:46:02.972Z,78.12
2023-05-19T00:48:29.549Z,77.81
2023-05-19T00:51:04.709Z,78.04
2023-05-19T00:53:35.494Z,78.13
2023-05-19T00:56:03.254Z,78.37
2023-05-19T00:58:31.194Z,78.75
2023-05-19T01:01:04.187Z,78.83
2023-05-19T01:03:32.536Z,79.39
2023-05-19T01:06:01.809Z,78.25
2023-05-19T01:08:29.381Z,78.11
2023-05-19T01:10:56.074Z,77.80
2023-05-19T01:13:22.927Z,77.75
2023-05-19T01:16:17.748Z,77.32
2023-05-19T01:19:23.126Z,77.95
2023-05-19T01:22:22.849Z,78.13
2023-05-19T01:25:17.929Z,78.05
2023-05-19T01:28:00.737Z,77.96
2023-05-19T01:30:34.037Z,77.81
2023-05-19T01:33:04.620Z,77.45
2023-05-19T01:35:33.020Z,77.52
2023-05-19T01:38:01.116Z,78.33
2023-05-19T01:40:28.999Z,78.29
2023-05-19T01:42:58.065Z,78.58
2023-05-19T01:45:25.828Z,79.00
2023-05-19T01:47:55.563Z,78.44
2023-05-19T01:50:22.693Z,78.03
2023-05-19T01:52:49.340Z,78.15
2023-05-19T01:55:16.067Z,77.94
2023-05-19T01:58:15.409Z,77.96
2023-05-19T02:00:56.974Z,78.49
2023-05-19T02:03:34.768Z,78.90
2023-05-19T02:06:13.393Z,79.63
2023-05-19T02:08:44.576Z,79.26
2023-05-19T02:11:21.696Z,79.65
2023-05-19T02:13:51.476Z,79.98
2023-05-19T02:16:20.537Z,81.13
2023-05-19T02:18:48.133Z,81.53
2023-05-19T02:21:14.961Z,81.62
2023-05-19T02:23:42.122Z,81.75
2023-05-19T02:26:08.895Z,81.65
2023-05-19T02:28:36.774Z,81.85
2023-05-19T02:31:06.332Z,82.29
2023-05-19T02:33:32.903Z,81.77
2023-05-19T02:35:59.482Z,82.15
2023-05-19T02:38:26.858Z,82.26
2023-05-19T02:40:53.481Z,81.99
2023-05-19T02:43:22.516Z,82.10
2023-05-19T02:45:49.116Z,81.69
2023-05-19T02:48:15.842Z,81.33
2023-05-19T02:50:43.090Z,81.38
2023-05-19T02:53:09.635Z,81.93
2023-05-19T02:55:36.665Z,82.09
2023-05-19T02:58:03.223Z,82.92
2023-05-19T03:00:29.964Z,82.79
2023-05-19T03:02:56.676Z,83.21
2023-05-19T03:05:23.346Z,83.34
2023-05-19T03:07:50.151Z,83.90
2023-05-19T03:10:16.837Z,83.76
2023-05-19T03:12:43.430Z,83.65
2023-05-19T03:15:10.419Z,84.11
2023-05-19T03:17:37.263Z,84.44
2023-05-19T03:20:05.481Z,84.89
2023-05-19T03:22:32.337Z,85.63
2023-05-19T03:24:59.102Z,85.13
2023-05-19T03:27:25.924Z,85.50
2023-05-19T03:29:53.954Z,86.30
2023-05-19T03:32:20.573Z,86.12
2023-05-19T03:34:47.290Z,85.96
2023-05-19T03:37:13.998Z,86.18
2023-05-19T03:39:40.689Z,87.21
2023-05-19T03:42:07.337Z,87.94
2023-05-19T03:44:33.980Z,89.21
2023-05-19T03:47:00.661Z,89.26
2023-05-19T03:49:27.362Z,89.52
2023-05-19T03:51:56.497Z,89.98
2023-05-19T03:54:23.915Z,89.66
2023-05-19T03:56:50.621Z,89.50
2023-05-19T03:59:17.252Z,89.43
2023-05-19T04:01:43.821Z,89.97
2023-05-19T04:04:11.044Z,89.78
2023-05-19T04:06:37.984Z,90.27
2023-05-19T04:09:12.688Z,90.88
2023-05-19T04:11:42.724Z,91.17
2023-05-19T04:14:09.675Z,91.56
2023-05-19T04:16:36.299Z,92.41
2023-05-19T04:19:02.943Z,92.50
2023-05-19T04:21:29.604Z,92.54
2023-05-19T04:24:01.793Z,92.19
2023-05-19T04:26:30.964Z,92.17
2023-05-19T04:28:57.741Z,92.10
2023-05-19T04:31:24.463Z,91.73
2023-05-19T04:33:53.505Z,91.99
2023-05-19T04:36:21.680Z,91.65
2023-05-19T04:38:48.487Z,91.94
2023-05-19T04:41:16.529Z,92.16
2023-05-19T04:43:44.736Z,92.03
2023-05-19T04:46:13.876Z,92.04
2023-05-19T04:48:41.213Z,92.52
2023-05-19T04:51:07.966Z,92.82
2023-05-19T04:53:34.956Z,93.57
2023-05-19T04:56:02.166Z,94.30
2023-05-19T04:58:29.018Z,95.41
2023-05-19T05:00:56.003Z,97.14
2023-05-19T05:03:26.516Z,97.25
2023-05-19T05:05:53.496Z,97.28
2023-05-19T05:08:23.442Z,97.29
2023-05-19T05:10:51.669Z,97.24
2023-05-19T05:13:21.477Z,96.85
2023-05-19T05:18:29.042Z,95.68
2023-05-19T05:20:55.913Z,94.98
2023-05-19T05:23:22.775Z,96.27
2023-05-19T05:25:49.582Z,97.89
2023-05-19T05:28:16.511Z,98.85
2023-05-19T05:30:43.788Z,98.26
2023-05-19T05:33:10.987Z,98.53
2023-05-19T05:35:40.334Z,99.86
2023-05-19T05:38:09.211Z,100.00
2023-05-19T05:40:35.830Z,100.00
2023-05-19T05:43:02.415Z,100.00
2023-05-19T05:45:31.877Z,100.00
2023-05-19T05:48:01.831Z,100.00
2023-05-19T05:50:31.992Z,100.00
2023-05-19T05:53:01.547Z,99.50
2023-05-19T05:55:28.903Z,98.58
2023-05-19T05:57:59.427Z,98.77
2023-05-19T06:00:28.324Z,98.86
2023-05-19T06:02:54.979Z,98.36
2023-05-19T06:05:21.965Z,100.00
2023-05-19T06:07:48.699Z,99.94
2023-05-19T06:10:15.280Z,100.00
2023-05-19T06:12:43.233Z,99.75
2023-05-19T06:15:10.568Z,100.00
2023-05-19T06:17:38.420Z,98.97
2023-05-19T06:20:06.193Z,98.38
2023-05-19T06:22:32.850Z,97.57
2023-05-19T06:24:59.638Z,98.39
2023-05-19T06:27:26.242Z,98.34
2023-05-19T06:29:53.346Z,97.79
2023-05-19T06:32:21.155Z,97.13
2023-05-19T06:34:54.324Z,97.61
2023-05-19T06:37:25.403Z,96.13
2023-05-19T06:39:55.163Z,95.20
2023-05-19T06:42:23.041Z,92.06
2023-05-19T06:44:51.018Z,90.68
2023-05-19T06:47:19.071Z,89.47
2023-05-19T06:49:50.713Z,90.19
2023-05-19T06:52:18.066Z,89.67
2023-05-19T06:54:44.998Z,89.84
2023-05-19T06:57:11.701Z,90.43
2023-05-19T06:59:41.114Z,90.37
2023-05-19T07:02:08.316Z,89.68
2023-05-19T07:04:37.839Z,89.61
2023-05-19T07:07:04.700Z,87.62
2023-05-19T07:09:31.382Z,87.89
2023-05-19T07:12:08.331Z,86.93
2023-05-19T07:14:36.645Z,87.38
2023-05-19T07:17:03.342Z,87.05
2023-05-19T07:19:30.061Z,86.05
2023-05-19T07:21:57.139Z,85.84
2023-05-19T07:24:24.134Z,86.62
2023-05-19T07:26:51.098Z,84.79
2023-05-19T07:29:17.781Z,84.56
2023-05-19T07:31:44.487Z,84.09
2023-05-19T07:34:11.201Z,84.38
2023-05-19T07:36:37.847Z,84.54
2023-05-19T07:39:07.030Z,85.65
2023-05-19T07:41:36.518Z,84.97
2023-05-19T07:44:09.026Z,82.97
2023-05-19T07:46:36.079Z,83.85
2023-05-19T07:49:02.840Z,82.49
2023-05-19T07:51:32.364Z,81.98
2023-05-19T07:54:02.428Z,78.63
2023-05-19T07:56:32.126Z,78.35
2023-05-19T07:59:01.839Z,76.55
2023-05-19T08:01:30.139Z,74.07
2023-05-19T08:03:56.895Z,73.23
2023-05-19T08:06:25.333Z,72.48
2023-05-19T08:08:52.462Z,70.53
2023-05-19T08:11:19.071Z,69.99
2023-05-19T08:13:48.729Z,68.78
2023-05-19T08:16:25.920Z,69.29
2023-05-19T08:18:52.607Z,65.24
2023-05-19T08:21:19.185Z,67.38
2023-05-19T08:23:45.823Z,67.55
2023-05-19T08:26:12.339Z,64.51
2023-05-19T08:28:38.839Z,65.14
2023-05-19T08:31:05.449Z,65.24
2023-05-19T08:33:31.960Z,64.68
2023-05-19T08:36:01.680Z,63.35
2023-05-19T08:38:30.498Z,62.85
2023-05-19T08:41:00.289Z,63.90
2023-05-19T08:43:26.880Z,65.72
2023-05-19T08:45:55.704Z,64.11
2023-05-19T08:48:23.022Z,65.56
2023-05-19T08:51:11.168Z,64.57
2023-05-19T08:53:44.029Z,63.08
2023-05-19T08:56:21.845Z,60.90
2023-05-19T08:58:49.927Z,60.13
2023-05-19T09:01:17.164Z,54.89
2023-05-19T09:03:49.881Z,57.79
2023-05-19T09:06:17.076Z,56.43
2023-05-19T09:08:44.500Z,57.23
2023-05-19T09:11:11.932Z,54.76
2023-05-19T09:13:39.116Z,54.33
2023-05-19T09:16:06.641Z,53.54
2023-05-19T09:18:33.281Z,51.50
2023-05-19T09:21:03.386Z,50.85
2023-05-19T09:23:36.144Z,51.21
2023-05-19T09:26:05.015Z,50.41
2023-05-19T09:28:33.611Z,48.55
2023-05-19T09:31:07.340Z,48.30
2023-05-19T09:33:38.664Z,48.19
2023-05-19T09:36:08.310Z,48.72
2023-05-19T09:38:36.255Z,47.20
2023-05-19T09:41:03.429Z,47.87
2023-05-19T09:43:34.763Z,46.34
2023-05-19T09:46:09.190Z,45.88
2023-05-19T09:48:37.551Z,46.80
2023-05-19T09:51:06.384Z,45.12
2023-05-19T09:53:34.604Z,43.65
2023-05-19T09:56:01.979Z,43.59
2023-05-19T09:58:35.429Z,44.00
2023-05-19T10:01:07.082Z,43.86
2023-05-19T10:03:34.348Z,47.44
2023-05-19T10:06:01.649Z,46.06
2023-05-19T10:08:30.614Z,43.71
2023-05-19T10:10:57.902Z,43.24
2023-05-19T10:13:25.416Z,42.37
2023-05-19T10:15:59.403Z,41.31
2023-05-19T10:18:27.904Z,39.77
2023-05-19T10:20:58.803Z,40.66
2023-05-19T10:23:26.750Z,39.80
2023-05-19T10:25:57.840Z,39.48
2023-05-19T10:28:31.903Z,38.77
2023-05-19T10:31:06.392Z,37.04
2023-05-19T10:34:07.639Z,38.52
2023-05-19T10:36:45.941Z,40.24
2023-05-19T10:39:22.038Z,38.03
2023-05-19T10:42:01.451Z,37.20
2023-05-19T10:44:56.164Z,40.39
2023-05-19T10:47:26.412Z,39.65
2023-05-19T10:49:56.472Z,39.38
2023-05-19T10:52:29.891Z,38.37
2023-05-19T10:54:58.533Z,39.54
2023-05-19T10:57:33.110Z,40.87
2023-05-19T11:00:11.285Z,40.06
2023-05-19T11:02:43.149Z,40.83
2023-05-19T11:05:16.798Z,41.09
2023-05-19T11:08:07.971Z,42.15
2023-05-19T11:10:35.087Z,43.28
2023-05-19T11:13:01.986Z,43.57
2023-05-19T11:15:31.541Z,44.85
2023-05-19T11:18:02.125Z,47.22
2023-05-19T11:20:31.957Z,46.78
2023-05-19T11:23:04.658Z,46.80
2023-05-19T11:25:53.985Z,47.88
2023-05-19T11:28:26.305Z,48.83
2023-05-19T11:30:54.925Z,49.02
2023-05-19T11:33:21.743Z,48.42
2023-05-19T11:35:51.140Z,49.14
2023-05-19T11:38:19.732Z,49.86
2023-05-19T11:40:49.881Z,50.50
2023-05-19T11:43:16.718Z,49.46
2023-05-19T11:45:43.837Z,50.52
2023-05-19T11:48:13.905Z,49.27
2023-05-19T11:50:44.209Z,49.93
2023-05-19T11:53:14.207Z,48.99
2023-05-19T11:55:46.810Z,49.11
2023-05-19T11:58:15.050Z,49.29
2023-05-19T12:00:51.900Z,48.06
2023-05-19T12:03:31.847Z,48.48
2023-05-19T12:06:01.423Z,48.26
2023-05-19T12:08:33.919Z,49.00
2023-05-19T12:11:03.681Z,48.09
2023-05-19T12:13:33.414Z,48.36
2023-05-19T12:16:01.302Z,47.04
2023-05-19T12:18:37.532Z,48.92
2023-05-19T12:21:05.072Z,47.88
2023-05-19T12:23:33.820Z,48.97
2023-05-19T12:26:03.330Z,48.05
2023-05-19T12:28:32.947Z,49.08
2023-05-19T12:31:00.197Z,49.17
2023-05-19T12:33:26.823Z,49.14
2023-05-19T12:35:54.514Z,48.43
2023-05-19T12:38:21.373Z,48.78
2023-05-19T12:40:49.994Z,49.94
2023-05-19T12:43:22.255Z,49.55
2023-05-19T12:45:49.633Z,49.54
2023-05-19T12:48:17.024Z,50.05
2023-05-19T12:50:47.530Z,49.25
2023-05-19T12:53:15.233Z,48.50
2023-05-19T12:55:43.162Z,47.83
2023-05-19T12:58:11.587Z,49.19
2023-05-19T13:00:47.862Z,49.44
2023-05-19T13:03:16.988Z,48.43
2023-05-19T13:05:46.581Z,47.49
2023-05-19T13:08:15.535Z,47.95
2023-05-19T13:10:43.757Z,47.40
2023-05-19T13:13:11.099Z,47.18
2023-05-19T13:15:48.945Z,46.34
2023-05-19T13:18:15.777Z,46.91
2023-05-19T13:20:44.410Z,46.95
2023-05-19T13:23:12.381Z,45.07
2023-05-19T13:25:39.544Z,46.56
2023-05-19T13:28:06.726Z,46.36
2023-05-19T13:30:34.808Z,46.63
2023-05-19T13:33:02.009Z,45.79
2023-05-19T13:35:28.694Z,47.15
2023-05-19T13:37:55.258Z,46.68
2023-05-19T13:40:23.912Z,47.57
2023-05-19T13:42:50.429Z,47.72
2023-05-19T13:45:17.039Z,46.87
2023-05-19T13:47:43.683Z,47.88
2023-05-19T13:50:10.602Z,46.79
2023-05-19T13:52:37.166Z,46.73
2023-05-19T13:55:07.686Z,47.68
2023-05-19T13:57:38.215Z,46.91
2023-05-19T14:00:05.966Z,46.42
2023-05-19T14:02:33.850Z,46.24
2023-05-19T14:05:00.579Z,45.22
2023-05-19T14:07:28.242Z,45.21
2023-05-19T14:09:55.300Z,46.62
2023-05-19T14:12:27.593Z,46.46
2023-05-19T14:14:58.803Z,44.53
2023-05-19T14:17:27.569Z,44.42
2023-05-19T14:19:54.344Z,44.07
2023-05-19T14:22:20.881Z,47.05
2023-05-19T14:24:47.489Z,48.12
2023-05-19T14:27:13.991Z,47.53
2023-05-19T14:29:40.599Z,47.13
2023-05-19T14:32:07.976Z,46.44
2023-05-19T14:34:37.710Z,47.16
2023-05-19T14:37:07.412Z,45.58
2023-05-19T14:39:34.046Z,45.32
2023-05-19T14:42:05.360Z,45.33
2023-05-19T14:44:35.193Z,46.07
2023-05-19T14:47:02.264Z,46.21
2023-05-19T14:49:29.173Z,45.80
2023-05-19T14:51:56.092Z,46.72
2023-05-19T14:54:22.674Z,47.23
2023-05-19T14:56:49.234Z,48.12
2023-05-19T14:59:15.823Z,46.19
2023-05-19T15:01:42.810Z,48.64
2023-05-19T15:04:09.560Z,46.95
2023-05-19T15:06:36.105Z,47.82
2023-05-19T15:09:02.896Z,47.72
2023-05-19T15:11:30.276Z,46.45
2023-05-19T15:13:56.878Z,47.74
2023-05-19T15:16:23.572Z,45.87
2023-05-19T15:18:51.629Z,47.73
2023-05-19T15:21:18.623Z,46.71
2023-05-19T15:23:45.260Z,46.97
2023-05-19T15:26:12.156Z,47.94
2023-05-19T15:28:38.828Z,45.95
2023-05-19T15:31:08.712Z,46.06
2023-05-19T15:33:38.152Z,46.32
2023-05-19T15:36:05.462Z,45.87
2023-05-19T15:38:36.085Z,46.61
2023-05-19T15:41:07.754Z,48.45
2023-05-19T15:43:34.462Z,49.35
2023-05-19T15:46:01.050Z,48.78
2023-05-19T15:48:29.111Z,47.41
2023-05-19T15:50:58.202Z,46.79
2023-05-19T15:53:25.586Z,46.87
2023-05-19T15:55:52.338Z,47.71
2023-05-19T15:58:18.892Z,47.36
2023-05-19T16:00:45.648Z,47.58
2023-05-19T16:03:12.679Z,48.50
2023-05-19T16:05:39.336Z,46.03
2023-05-19T16:08:07.789Z,47.45
2023-05-19T16:10:35.746Z,48.01
2023-05-19T16:13:02.367Z,46.97
2023-05-19T16:15:28.900Z,48.28
2023-05-19T16:17:55.580Z,48.97
2023-05-19T16:20:26.772Z,48.33
2023-05-19T16:22:54.065Z,47.28
2023-05-19T16:25:20.764Z,47.49
2023-05-19T16:27:47.395Z,47.74
2023-05-19T16:30:14.364Z,48.43
2023-05-19T16:32:41.031Z,49.44
2023-05-19T16:35:09.882Z,49.79
2023-05-19T16:37:36.459Z,50.38
2023-05-19T16:40:03.297Z,49.70
2023-05-19T16:42:29.818Z,49.34
2023-05-19T16:44:56.341Z,49.30
2023-05-19T16:47:22.946Z,50.46
2023-05-19T16:49:49.443Z,50.99
2023-05-19T16:52:16.038Z,48.62
2023-05-19T16:54:42.717Z,49.11
2023-05-19T16:57:09.941Z,49.50
2023-05-19T16:59:36.517Z,49.73
2023-05-19T17:02:03.519Z,49.61
2023-05-19T17:04:31.028Z,50.07
2023-05-19T17:07:11.052Z,51.84
2023-05-19T17:09:37.649Z,51.61
2023-05-19T17:12:06.822Z,51.25
2023-05-19T17:14:43.714Z,52.17
2023-05-19T17:17:13.493Z,51.24
2023-05-19T17:19:45.526Z,51.82
2023-05-19T17:22:12.282Z,51.76
2023-05-19T17:24:41.283Z,51.91
2023-05-19T17:27:31.061Z,51.76
2023-05-19T17:30:40.849Z,51.20
2023-05-19T17:34:05.306Z,50.80
2023-05-19T17:36:42.295Z,51.97
2023-05-19T17:39:11.117Z,53.58
2023-05-19T17:41:37.754Z,53.71
2023-05-19T17:44:06.809Z,54.13
2023-05-19T17:46:39.738Z,53.93
2023-05-19T17:49:06.845Z,53.98
2023-05-19T17:51:33.779Z,53.78
2023-05-19T17:54:00.929Z,53.63
2023-05-19T17:56:30.812Z,53.33
2023-05-19T17:58:57.667Z,53.87
2023-05-19T18:01:25.950Z,54.50
2023-05-19T18:03:53.011Z,55.17
2023-05-19T18:06:24.251Z,55.21
2023-05-19T18:09:15.686Z,55.55
2023-05-19T18:11:49.786Z,55.89
2023-05-19T18:14:16.655Z,56.35
2023-05-19T18:16:43.422Z,57.05
2023-05-19T18:19:13.134Z,57.55
2023-05-19T18:21:40.473Z,58.17
2023-05-19T18:24:07.518Z,59.34
2023-05-19T18:26:34.432Z,59.02
2023-05-19T18:29:05.071Z,59.38
2023-05-19T18:31:32.058Z,60.55
2023-05-19T18:33:59.049Z,60.22
2023-05-19T18:36:26.236Z,60.09
2023-05-19T18:38:53.246Z,60.57
2023-05-19T18:41:20.056Z,60.07
2023-05-19T18:43:47.169Z,60.25
2023-05-19T18:46:14.338Z,59.77
2023-05-19T18:48:58.880Z,59.76
2023-05-19T18:51:36.483Z,59.93
2023-05-19T18:54:03.428Z,60.69
2023-05-19T18:56:51.323Z,60.62
2023-05-19T19:00:02.046Z,60.98
2023-05-19T19:02:13.347Z,60.83
2023-05-19T19:04:40.215Z,60.63
2023-05-19T19:07:06.848Z,61.49
2023-05-19T19:09:36.883Z,61.60
2023-05-19T19:12:03.662Z,61.57
2023-05-19T19:14:30.703Z,61.50
2023-05-19T19:17:00.222Z,60.99
2023-05-19T19:19:29.820Z,61.72
2023-05-19T19:21:56.760Z,61.71
2023-05-19T19:24:24.217Z,62.26
2023-05-19T19:26:50.877Z,62.03
2023-05-19T19:29:18.328Z,62.08
2023-05-19T19:31:45.153Z,62.03
2023-05-19T19:34:14.643Z,62.16
2023-05-19T19:36:41.228Z,62.13
2023-05-19T19:39:14.415Z,61.67
2023-05-19T19:41:41.114Z,62.50
2023-05-19T19:44:07.843Z,62.81
2023-05-19T19:46:34.780Z,62.64
2023-05-19T19:49:01.445Z,62.54
2023-05-19T19:51:28.805Z,63.41
2023-05-19T19:53:58.504Z,63.17
2023-05-19T19:56:32.228Z,63.13
2023-05-19T19:58:59.385Z,63.48
2023-05-19T20:01:27.624Z,63.56
2023-05-19T20:03:56.050Z,63.55
2023-05-19T20:06:31.892Z,63.69
2023-05-19T20:08:58.795Z,63.82
2023-05-19T20:11:26.827Z,64.07
2023-05-19T20:13:53.513Z,63.50
2023-05-19T20:16:20.187Z,63.56
2023-05-19T20:18:46.899Z,64.34
2023-05-19T20:21:16.649Z,63.91
2023-05-19T20:23:46.439Z,64.67
2023-05-19T20:26:16.751Z,64.22
2023-05-19T20:28:52.189Z,64.67
2023-05-19T20:31:18.771Z,64.81
2023-05-19T20:33:45.583Z,65.12
2023-05-19T20:36:14.498Z,65.96
2023-05-19T20:38:44.084Z,66.44
2023-05-19T20:41:10.825Z,66.52
2023-05-19T20:43:37.487Z,67.01
2023-05-19T20:46:04.136Z,67.02
2023-05-19T20:48:31.178Z,67.19
2023-05-19T20:50:57.690Z,67.52
2023-05-19T20:53:24.399Z,67.67
2023-05-19T20:55:51.066Z,67.76
2023-05-19T20:58:17.637Z,67.83
2023-05-19T21:00:44.217Z,68.45
2023-05-19T21:03:11.667Z,67.99
2023-05-19T21:05:38.619Z,68.64
2023-05-19T21:08:05.321Z,69.09
2023-05-19T21:10:32.108Z,68.72
2023-05-19T21:12:58.931Z,68.98
2023-05-19T21:15:26.934Z,69.29
2023-05-19T21:17:53.536Z,69.74
2023-05-19T21:20:20.304Z,70.69
2023-05-19T21:22:51.720Z,70.16
2023-05-19T21:25:18.473Z,70.40
2023-05-19T21:27:48.214Z,71.47
2023-05-19T21:30:17.882Z,71.65
2023-05-19T21:32:48.047Z,72.23
2023-05-19T21:35:18.743Z,71.67
2023-05-19T21:37:48.554Z,71.56
2023-05-19T21:40:18.405Z,72.00
2023-05-19T21:42:48.252Z,72.33
2023-05-19T21:45:18.484Z,72.09
2023-05-19T21:47:45.495Z,72.23
2023-05-19T21:50:18.682Z,72.18
2023-05-19T21:52:48.436Z,71.79
2023-05-19T21:55:17.223Z,71.73
2023-05-19T21:57:43.751Z,71.81
2023-05-19T22:00:13.174Z,72.22
2023-05-19T22:02:40.540Z,72.51
2023-05-19T22:05:07.445Z,72.63
2023-05-19T22:07:34.067Z,72.04
2023-05-19T22:10:01.050Z,72.82
2023-05-19T22:12:27.632Z,73.23
2023-05-19T22:14:54.204Z,72.73
2023-05-19T22:17:20.992Z,73.11
2023-05-19T22:19:50.542Z,72.78
2023-05-19T22:22:17.162Z,72.61
2023-05-19T22:24:43.817Z,72.47
2023-05-19T22:27:10.396Z,72.52
2023-05-19T22:29:38.785Z,72.08
2023-05-19T22:32:09.265Z,72.75
2023-05-19T22:34:35.920Z,72.64
2023-05-19T22:37:02.588Z,73.26
2023-05-19T22:39:29.166Z,73.03
2023-05-19T22:41:55.781Z,73.40
2023-05-19T22:44:22.302Z,72.72
2023-05-19T22:46:52.120Z,72.75
2023-05-19T22:49:19.224Z,72.58
2023-05-19T22:51:45.824Z,71.99
2023-05-19T22:54:12.675Z,71.98
2023-05-19T22:56:39.174Z,71.23
2023-05-19T22:59:05.854Z,71.20
2023-05-19T23:01:32.424Z,71.44
2023-05-19T23:03:59.020Z,71.88
2023-05-19T23:06:25.761Z,71.74
2023-05-19T23:09:01.879Z,72.28
2023-05-19T23:11:28.563Z,72.87
2023-05-19T23:13:55.146Z,72.54
2023-05-19T23:16:22.210Z,72.65
2023-05-19T23:18:48.837Z,72.93
2023-05-19T23:21:15.542Z,74.10
2023-05-19T23:23:42.116Z,73.90
2023-05-19T23:26:08.690Z,74.48
2023-05-19T23:28:35.328Z,74.27
2023-05-19T23:31:01.965Z,74.77
2023-05-19T23:33:28.538Z,74.16
2023-05-19T23:35:55.211Z,73.93
2023-05-19T23:38:25.002Z,74.12
2023-05-19T23:40:54.866Z,74.32
2023-05-19T23:43:23.705Z,74.28
2023-05-19T23:45:50.497Z,74.60
2023-05-19T23:48:17.192Z,74.62
2023-05-19T23:50:43.754Z,74.32
2023-05-19T23:53:10.302Z,74.62
2023-05-19T23:55:36.898Z,75.12
2023-05-19T23:58:03.498Z,75.56
